sensor_id;sensor_type;location;lat;lon;timestamp;temperature;humidity
17080;DHT22;8655;57.106;-2.088;2022-10-16T00:00:43;17.30;61.80
17080;DHT22;8655;57.106;-2.088;2022-10-16T00:03:10;17.30;61.80
17080;DHT22;8655;57.106;-2.088;2022-10-16T00:05:43;17.30;61.80
17080;DHT22;8655;57.106;-2.088;2022-10-16T00:08:12;17.30;61.80
17080;DHT22;8655;57.106;-2.088;2022-10-16T00:10:39;17.30;61.90
17080;DHT22;8655;57.106;-2.088;2022-10-16T00:13:05;17.30;61.90
17080;DHT22;8655;57.106;-2.088;2022-10-16T00:15:33;17.30;61.80
17080;DHT22;8655;57.106;-2.088;2022-10-16T00:18:01;17.30;61.80
17080;DHT22;8655;57.106;-2.088;2022-10-16T00:20:27;17.30;61.80
17080;DHT22;8655;57.106;-2.088;2022-10-16T00:22:53;17.30;61.80
17080;DHT22;8655;57.106;-2.088;2022-10-16T00:25:18;17.30;61.80
17080;DHT22;8655;57.106;-2.088;2022-10-16T00:27:44;17.30;62.50
17080;DHT22;8655;57.106;-2.088;2022-10-16T00:30:10;17.30;61.80
17080;DHT22;8655;57.106;-2.088;2022-10-16T00:32:36;17.30;61.80
17080;DHT22;8655;57.106;-2.088;2022-10-16T00:35:02;17.30;61.80
17080;DHT22;8655;57.106;-2.088;2022-10-16T00:37:29;17.20;61.70
17080;DHT22;8655;57.106;-2.088;2022-10-16T00:39:54;17.30;61.80
17080;DHT22;8655;57.106;-2.088;2022-10-16T00:42:22;17.20;61.70
17080;DHT22;8655;57.106;-2.088;2022-10-16T00:44:52;17.30;61.70
17080;DHT22;8655;57.106;-2.088;2022-10-16T00:47:44;17.30;61.70
17080;DHT22;8655;57.106;-2.088;2022-10-16T00:50:29;17.30;61.70
17080;DHT22;8655;57.106;-2.088;2022-10-16T00:52:56;17.20;61.60
17080;DHT22;8655;57.106;-2.088;2022-10-16T00:55:23;17.20;61.60
17080;DHT22;8655;57.106;-2.088;2022-10-16T00:57:49;17.20;61.70
17080;DHT22;8655;57.106;-2.088;2022-10-16T01:00:19;17.20;61.60
17080;DHT22;8655;57.106;-2.088;2022-10-16T01:02:51;17.20;61.70
17080;DHT22;8655;57.106;-2.088;2022-10-16T01:05:17;17.20;61.60
17080;DHT22;8655;57.106;-2.088;2022-10-16T01:08:00;17.20;61.60
17080;DHT22;8655;57.106;-2.088;2022-10-16T01:10:44;17.20;61.60
17080;DHT22;8655;57.106;-2.088;2022-10-16T01:13:22;17.20;61.60
17080;DHT22;8655;57.106;-2.088;2022-10-16T01:19:20;17.20;61.60
17080;DHT22;8655;57.106;-2.088;2022-10-16T01:21:45;17.20;61.70
17080;DHT22;8655;57.106;-2.088;2022-10-16T01:24:39;17.20;61.60
17080;DHT22;8655;57.106;-2.088;2022-10-16T01:27:21;17.20;61.70
17080;DHT22;8655;57.106;-2.088;2022-10-16T01:30:27;17.20;61.60
17080;DHT22;8655;57.106;-2.088;2022-10-16T01:35:49;17.20;61.60
17080;DHT22;8655;57.106;-2.088;2022-10-16T01:40:51;17.20;61.60
17080;DHT22;8655;57.106;-2.088;2022-10-16T01:43:22;17.20;61.60
17080;DHT22;8655;57.106;-2.088;2022-10-16T01:45:49;17.20;61.70
17080;DHT22;8655;57.106;-2.088;2022-10-16T01:48:18;17.20;61.60
17080;DHT22;8655;57.106;-2.088;2022-10-16T01:50:47;17.10;61.60
17080;DHT22;8655;57.106;-2.088;2022-10-16T01:53:14;17.10;61.80
17080;DHT22;8655;57.106;-2.088;2022-10-16T01:55:44;17.10;61.60
17080;DHT22;8655;57.106;-2.088;2022-10-16T01:58:13;17.10;61.60
17080;DHT22;8655;57.106;-2.088;2022-10-16T02:00:42;17.10;61.60
17080;DHT22;8655;57.106;-2.088;2022-10-16T02:03:11;17.10;61.60
17080;DHT22;8655;57.106;-2.088;2022-10-16T02:05:50;17.10;61.60
17080;DHT22;8655;57.106;-2.088;2022-10-16T02:08:17;17.10;61.60
17080;DHT22;8655;57.106;-2.088;2022-10-16T02:10:43;17.10;61.60
17080;DHT22;8655;57.106;-2.088;2022-10-16T02:15:41;17.10;61.60
17080;DHT22;8655;57.106;-2.088;2022-10-16T02:18:07;17.10;62.20
17080;DHT22;8655;57.106;-2.088;2022-10-16T02:20:44;17.10;61.60
17080;DHT22;8655;57.106;-2.088;2022-10-16T02:23:16;17.10;61.60
17080;DHT22;8655;57.106;-2.088;2022-10-16T02:25:44;17.10;61.60
17080;DHT22;8655;57.106;-2.088;2022-10-16T02:28:18;17.10;61.60
17080;DHT22;8655;57.106;-2.088;2022-10-16T02:30:52;17.10;61.60
17080;DHT22;8655;57.106;-2.088;2022-10-16T02:33:22;17.10;61.60
17080;DHT22;8655;57.106;-2.088;2022-10-16T02:35:49;17.10;61.60
17080;DHT22;8655;57.106;-2.088;2022-10-16T02:38:17;17.10;61.60
17080;DHT22;8655;57.106;-2.088;2022-10-16T02:40:44;17.10;61.60
17080;DHT22;8655;57.106;-2.088;2022-10-16T02:43:10;17.10;61.60
17080;DHT22;8655;57.106;-2.088;2022-10-16T02:45:36;17.10;61.60
17080;DHT22;8655;57.106;-2.088;2022-10-16T02:48:02;17.10;61.60
17080;DHT22;8655;57.106;-2.088;2022-10-16T02:50:27;17.10;61.50
17080;DHT22;8655;57.106;-2.088;2022-10-16T02:52:53;17.10;61.60
17080;DHT22;8655;57.106;-2.088;2022-10-16T02:58:07;17.10;61.60
17080;DHT22;8655;57.106;-2.088;2022-10-16T03:00:33;17.10;61.60
17080;DHT22;8655;57.106;-2.088;2022-10-16T03:02:59;17.10;61.50
17080;DHT22;8655;57.106;-2.088;2022-10-16T03:05:24;17.10;61.50
17080;DHT22;8655;57.106;-2.088;2022-10-16T03:07:50;17.10;61.50
17080;DHT22;8655;57.106;-2.088;2022-10-16T03:10:17;17.10;61.60
17080;DHT22;8655;57.106;-2.088;2022-10-16T03:12:43;17.00;61.40
17080;DHT22;8655;57.106;-2.088;2022-10-16T03:15:09;17.00;61.40
17080;DHT22;8655;57.106;-2.088;2022-10-16T03:17:35;17.00;61.40
17080;DHT22;8655;57.106;-2.088;2022-10-16T03:20:01;17.00;61.40
17080;DHT22;8655;57.106;-2.088;2022-10-16T03:22:27;17.00;61.40
17080;DHT22;8655;57.106;-2.088;2022-10-16T03:24:52;17.00;61.40
17080;DHT22;8655;57.106;-2.088;2022-10-16T03:27:18;17.00;61.40
17080;DHT22;8655;57.106;-2.088;2022-10-16T03:29:44;17.00;61.40
17080;DHT22;8655;57.106;-2.088;2022-10-16T03:32:09;17.00;61.40
17080;DHT22;8655;57.106;-2.088;2022-10-16T03:34:35;17.00;61.40
17080;DHT22;8655;57.106;-2.088;2022-10-16T03:37:01;17.00;61.40
17080;DHT22;8655;57.106;-2.088;2022-10-16T03:39:26;17.00;61.40
17080;DHT22;8655;57.106;-2.088;2022-10-16T03:41:52;17.00;61.40
17080;DHT22;8655;57.106;-2.088;2022-10-16T03:44:18;17.00;61.40
17080;DHT22;8655;57.106;-2.088;2022-10-16T03:46:43;17.00;61.40
17080;DHT22;8655;57.106;-2.088;2022-10-16T03:49:09;17.00;61.40
17080;DHT22;8655;57.106;-2.088;2022-10-16T03:51:35;17.00;61.40
17080;DHT22;8655;57.106;-2.088;2022-10-16T03:54:01;17.00;61.40
17080;DHT22;8655;57.106;-2.088;2022-10-16T03:56:26;17.00;61.40
17080;DHT22;8655;57.106;-2.088;2022-10-16T03:58:52;17.00;61.40
17080;DHT22;8655;57.106;-2.088;2022-10-16T04:01:18;17.00;61.40
17080;DHT22;8655;57.106;-2.088;2022-10-16T04:03:43;17.00;61.40
17080;DHT22;8655;57.106;-2.088;2022-10-16T04:06:09;17.00;61.40
17080;DHT22;8655;57.106;-2.088;2022-10-16T04:08:34;17.00;61.40
17080;DHT22;8655;57.106;-2.088;2022-10-16T04:11:02;17.00;61.40
17080;DHT22;8655;57.106;-2.088;2022-10-16T04:13:28;17.00;61.40
17080;DHT22;8655;57.106;-2.088;2022-10-16T04:15:54;17.00;61.40
17080;DHT22;8655;57.106;-2.088;2022-10-16T04:18:19;17.00;61.40
17080;DHT22;8655;57.106;-2.088;2022-10-16T04:20:45;17.00;61.40
17080;DHT22;8655;57.106;-2.088;2022-10-16T04:23:11;17.00;62.10
17080;DHT22;8655;57.106;-2.088;2022-10-16T04:25:36;17.00;61.40
17080;DHT22;8655;57.106;-2.088;2022-10-16T04:28:02;17.00;61.40
17080;DHT22;8655;57.106;-2.088;2022-10-16T04:30:28;17.00;62.00
17080;DHT22;8655;57.106;-2.088;2022-10-16T04:32:54;17.00;61.40
17080;DHT22;8655;57.106;-2.088;2022-10-16T04:35:21;16.90;61.20
17080;DHT22;8655;57.106;-2.088;2022-10-16T04:37:47;17.00;61.40
17080;DHT22;8655;57.106;-2.088;2022-10-16T04:40:13;16.90;61.20
17080;DHT22;8655;57.106;-2.088;2022-10-16T04:42:39;16.90;61.20
17080;DHT22;8655;57.106;-2.088;2022-10-16T04:45:06;16.90;61.20
17080;DHT22;8655;57.106;-2.088;2022-10-16T04:47:32;16.90;61.20
17080;DHT22;8655;57.106;-2.088;2022-10-16T04:49:58;16.90;61.20
17080;DHT22;8655;57.106;-2.088;2022-10-16T04:52:26;16.90;61.20
17080;DHT22;8655;57.106;-2.088;2022-10-16T04:54:52;16.90;61.20
17080;DHT22;8655;57.106;-2.088;2022-10-16T04:57:19;16.90;61.20
17080;DHT22;8655;57.106;-2.088;2022-10-16T04:59:45;16.90;61.20
17080;DHT22;8655;57.106;-2.088;2022-10-16T05:02:10;16.90;61.20
17080;DHT22;8655;57.106;-2.088;2022-10-16T05:04:36;16.90;61.20
17080;DHT22;8655;57.106;-2.088;2022-10-16T05:07:01;16.90;61.20
17080;DHT22;8655;57.106;-2.088;2022-10-16T05:09:27;16.90;61.20
17080;DHT22;8655;57.106;-2.088;2022-10-16T05:11:53;16.90;61.20
17080;DHT22;8655;57.106;-2.088;2022-10-16T05:14:18;16.90;61.20
17080;DHT22;8655;57.106;-2.088;2022-10-16T05:16:44;16.90;61.20
17080;DHT22;8655;57.106;-2.088;2022-10-16T05:19:10;16.80;61.10
17080;DHT22;8655;57.106;-2.088;2022-10-16T05:21:36;16.90;61.20
17080;DHT22;8655;57.106;-2.088;2022-10-16T05:24:02;16.90;61.20
17080;DHT22;8655;57.106;-2.088;2022-10-16T05:26:27;16.90;61.20
17080;DHT22;8655;57.106;-2.088;2022-10-16T05:28:53;16.90;61.10
17080;DHT22;8655;57.106;-2.088;2022-10-16T05:31:19;16.90;61.20
17080;DHT22;8655;57.106;-2.088;2022-10-16T05:33:45;16.90;61.20
17080;DHT22;8655;57.106;-2.088;2022-10-16T05:36:10;16.90;61.30
17080;DHT22;8655;57.106;-2.088;2022-10-16T05:38:37;16.90;61.30
17080;DHT22;8655;57.106;-2.088;2022-10-16T05:41:04;16.80;61.30
17080;DHT22;8655;57.106;-2.088;2022-10-16T05:43:31;16.90;61.30
17080;DHT22;8655;57.106;-2.088;2022-10-16T05:46:06;16.90;61.30
17080;DHT22;8655;57.106;-2.088;2022-10-16T05:48:32;17.00;61.40
17080;DHT22;8655;57.106;-2.088;2022-10-16T05:51:00;17.00;61.40
17080;DHT22;8655;57.106;-2.088;2022-10-16T05:53:27;17.00;61.40
17080;DHT22;8655;57.106;-2.088;2022-10-16T05:55:54;17.10;61.50
17080;DHT22;8655;57.106;-2.088;2022-10-16T05:58:20;17.10;61.50
17080;DHT22;8655;57.106;-2.088;2022-10-16T06:00:54;17.10;61.50
17080;DHT22;8655;57.106;-2.088;2022-10-16T06:03:20;17.20;61.50
17080;DHT22;8655;57.106;-2.088;2022-10-16T06:05:45;17.20;61.50
17080;DHT22;8655;57.106;-2.088;2022-10-16T06:08:11;17.30;61.60
17080;DHT22;8655;57.106;-2.088;2022-10-16T06:10:36;17.30;61.60
17080;DHT22;8655;57.106;-2.088;2022-10-16T06:13:02;17.30;61.60
17080;DHT22;8655;57.106;-2.088;2022-10-16T06:15:28;17.40;61.70
17080;DHT22;8655;57.106;-2.088;2022-10-16T06:17:54;17.40;61.70
17080;DHT22;8655;57.106;-2.088;2022-10-16T06:20:20;17.50;61.70
17080;DHT22;8655;57.106;-2.088;2022-10-16T06:22:45;17.50;61.70
17080;DHT22;8655;57.106;-2.088;2022-10-16T06:25:11;17.60;61.80
17080;DHT22;8655;57.106;-2.088;2022-10-16T06:27:39;17.60;61.70
17080;DHT22;8655;57.106;-2.088;2022-10-16T06:30:06;17.60;61.70
17080;DHT22;8655;57.106;-2.088;2022-10-16T06:32:32;17.60;61.70
17080;DHT22;8655;57.106;-2.088;2022-10-16T06:34:58;17.70;61.80
17080;DHT22;8655;57.106;-2.088;2022-10-16T06:37:24;17.70;61.90
17080;DHT22;8655;57.106;-2.088;2022-10-16T06:39:50;17.70;61.80
17080;DHT22;8655;57.106;-2.088;2022-10-16T06:42:18;17.70;61.80
17080;DHT22;8655;57.106;-2.088;2022-10-16T06:44:43;17.70;61.80
17080;DHT22;8655;57.106;-2.088;2022-10-16T06:47:09;17.70;61.80
17080;DHT22;8655;57.106;-2.088;2022-10-16T06:49:35;17.80;61.90
17080;DHT22;8655;57.106;-2.088;2022-10-16T06:52:01;17.80;61.90
17080;DHT22;8655;57.106;-2.088;2022-10-16T06:54:27;17.80;61.90
17080;DHT22;8655;57.106;-2.088;2022-10-16T06:56:53;17.80;61.90
17080;DHT22;8655;57.106;-2.088;2022-10-16T06:59:20;17.80;61.90
17080;DHT22;8655;57.106;-2.088;2022-10-16T07:01:46;17.80;61.90
17080;DHT22;8655;57.106;-2.088;2022-10-16T07:04:12;17.80;61.90
17080;DHT22;8655;57.106;-2.088;2022-10-16T07:06:39;17.80;61.90
17080;DHT22;8655;57.106;-2.088;2022-10-16T07:09:07;17.80;61.90
17080;DHT22;8655;57.106;-2.088;2022-10-16T07:11:34;17.80;61.90
17080;DHT22;8655;57.106;-2.088;2022-10-16T07:14:01;17.80;61.90
17080;DHT22;8655;57.106;-2.088;2022-10-16T07:16:29;17.80;61.90
17080;DHT22;8655;57.106;-2.088;2022-10-16T07:18:56;17.80;61.90
17080;DHT22;8655;57.106;-2.088;2022-10-16T07:21:33;17.80;61.90
17080;DHT22;8655;57.106;-2.088;2022-10-16T07:24:04;17.80;61.90
17080;DHT22;8655;57.106;-2.088;2022-10-16T07:26:33;17.80;61.90
17080;DHT22;8655;57.106;-2.088;2022-10-16T07:28:59;17.80;61.90
17080;DHT22;8655;57.106;-2.088;2022-10-16T07:31:26;17.70;61.80
17080;DHT22;8655;57.106;-2.088;2022-10-16T07:33:52;17.70;62.50
17080;DHT22;8655;57.106;-2.088;2022-10-16T07:36:19;17.70;61.80
17080;DHT22;8655;57.106;-2.088;2022-10-16T07:38:46;17.70;61.80
17080;DHT22;8655;57.106;-2.088;2022-10-16T07:41:16;17.70;61.80
17080;DHT22;8655;57.106;-2.088;2022-10-16T07:43:48;17.70;61.80
17080;DHT22;8655;57.106;-2.088;2022-10-16T07:46:14;17.70;61.80
17080;DHT22;8655;57.106;-2.088;2022-10-16T07:48:40;17.70;61.80
17080;DHT22;8655;57.106;-2.088;2022-10-16T07:51:07;17.70;61.70
17080;DHT22;8655;57.106;-2.088;2022-10-16T07:53:33;17.70;61.70
17080;DHT22;8655;57.106;-2.088;2022-10-16T07:56:00;17.70;61.70
17080;DHT22;8655;57.106;-2.088;2022-10-16T07:58:27;17.60;61.60
17080;DHT22;8655;57.106;-2.088;2022-10-16T08:00:53;17.60;61.60
17080;DHT22;8655;57.106;-2.088;2022-10-16T08:03:19;17.60;61.60
17080;DHT22;8655;57.106;-2.088;2022-10-16T08:05:45;17.60;61.60
17080;DHT22;8655;57.106;-2.088;2022-10-16T08:08:14;17.60;61.60
17080;DHT22;8655;57.106;-2.088;2022-10-16T08:10:41;17.60;61.60
17080;DHT22;8655;57.106;-2.088;2022-10-16T08:13:07;17.60;61.60
17080;DHT22;8655;57.106;-2.088;2022-10-16T08:15:33;17.60;61.60
17080;DHT22;8655;57.106;-2.088;2022-10-16T08:18:03;17.60;61.60
17080;DHT22;8655;57.106;-2.088;2022-10-16T08:20:33;17.50;61.50
17080;DHT22;8655;57.106;-2.088;2022-10-16T08:22:59;17.60;61.60
17080;DHT22;8655;57.106;-2.088;2022-10-16T08:25:25;17.50;61.50
17080;DHT22;8655;57.106;-2.088;2022-10-16T08:27:51;17.50;61.50
17080;DHT22;8655;57.106;-2.088;2022-10-16T08:30:20;17.50;61.50
17080;DHT22;8655;57.106;-2.088;2022-10-16T08:32:45;17.50;61.50
17080;DHT22;8655;57.106;-2.088;2022-10-16T08:35:12;17.50;61.50
17080;DHT22;8655;57.106;-2.088;2022-10-16T08:37:38;17.50;61.50
17080;DHT22;8655;57.106;-2.088;2022-10-16T08:40:06;17.50;61.50
17080;DHT22;8655;57.106;-2.088;2022-10-16T08:45:19;17.50;61.50
17080;DHT22;8655;57.106;-2.088;2022-10-16T08:50:40;17.50;61.60
17080;DHT22;8655;57.106;-2.088;2022-10-16T08:53:07;17.40;61.40
17080;DHT22;8655;57.106;-2.088;2022-10-16T08:55:42;17.40;61.40
17080;DHT22;8655;57.106;-2.088;2022-10-16T08:58:19;17.40;61.50
17080;DHT22;8655;57.106;-2.088;2022-10-16T09:00:56;17.40;61.50
17080;DHT22;8655;57.106;-2.088;2022-10-16T09:06:07;17.40;61.50
17080;DHT22;8655;57.106;-2.088;2022-10-16T09:16:39;17.40;61.50
17080;DHT22;8655;57.106;-2.088;2022-10-16T09:19:17;17.40;61.40
17080;DHT22;8655;57.106;-2.088;2022-10-16T09:21:46;17.40;61.40
17080;DHT22;8655;57.106;-2.088;2022-10-16T09:24:14;17.40;61.40
17080;DHT22;8655;57.106;-2.088;2022-10-16T09:26:40;17.40;61.40
17080;DHT22;8655;57.106;-2.088;2022-10-16T09:29:05;17.40;61.40
17080;DHT22;8655;57.106;-2.088;2022-10-16T09:31:31;17.40;61.40
17080;DHT22;8655;57.106;-2.088;2022-10-16T09:34:02;17.40;61.40
17080;DHT22;8655;57.106;-2.088;2022-10-16T09:36:40;17.40;61.40
17080;DHT22;8655;57.106;-2.088;2022-10-16T09:39:09;17.40;61.40
17080;DHT22;8655;57.106;-2.088;2022-10-16T09:41:39;17.40;61.40
17080;DHT22;8655;57.106;-2.088;2022-10-16T09:44:28;17.40;61.40
17080;DHT22;8655;57.106;-2.088;2022-10-16T09:49:27;17.40;61.40
17080;DHT22;8655;57.106;-2.088;2022-10-16T09:52:10;17.40;61.40
17080;DHT22;8655;57.106;-2.088;2022-10-16T09:54:37;17.40;61.40
17080;DHT22;8655;57.106;-2.088;2022-10-16T09:57:07;17.40;61.40
17080;DHT22;8655;57.106;-2.088;2022-10-16T09:59:33;17.40;61.40
17080;DHT22;8655;57.106;-2.088;2022-10-16T10:02:04;17.40;61.50
17080;DHT22;8655;57.106;-2.088;2022-10-16T10:04:43;17.40;61.40
17080;DHT22;8655;57.106;-2.088;2022-10-16T10:07:18;17.40;61.40
17080;DHT22;8655;57.106;-2.088;2022-10-16T10:09:45;17.40;61.40
17080;DHT22;8655;57.106;-2.088;2022-10-16T10:12:26;17.40;61.40
17080;DHT22;8655;57.106;-2.088;2022-10-16T10:14:57;17.40;61.40
17080;DHT22;8655;57.106;-2.088;2022-10-16T10:17:28;17.40;61.40
17080;DHT22;8655;57.106;-2.088;2022-10-16T10:20:01;17.40;61.40
17080;DHT22;8655;57.106;-2.088;2022-10-16T10:22:40;17.40;61.40
17080;DHT22;8655;57.106;-2.088;2022-10-16T10:35:49;17.40;61.40
17080;DHT22;8655;57.106;-2.088;2022-10-16T10:38:51;17.40;61.30
17080;DHT22;8655;57.106;-2.088;2022-10-16T10:41:23;17.40;61.30
17080;DHT22;8655;57.106;-2.088;2022-10-16T10:46:34;17.40;61.30
17080;DHT22;8655;57.106;-2.088;2022-10-16T10:52:09;17.40;61.30
17080;DHT22;8655;57.106;-2.088;2022-10-16T10:54:46;17.40;61.30
17080;DHT22;8655;57.106;-2.088;2022-10-16T10:57:29;17.40;61.30
17080;DHT22;8655;57.106;-2.088;2022-10-16T11:00:10;17.40;61.30
17080;DHT22;8655;57.106;-2.088;2022-10-16T11:08:11;17.40;61.30
17080;DHT22;8655;57.106;-2.088;2022-10-16T11:15:52;17.40;61.40
17080;DHT22;8655;57.106;-2.088;2022-10-16T11:18:23;17.40;61.30
17080;DHT22;8655;57.106;-2.088;2022-10-16T11:21:02;17.40;61.30
17080;DHT22;8655;57.106;-2.088;2022-10-16T11:23:55;17.40;61.30
17080;DHT22;8655;57.106;-2.088;2022-10-16T11:26:42;17.40;61.30
17080;DHT22;8655;57.106;-2.088;2022-10-16T11:29:24;17.40;61.30
17080;DHT22;8655;57.106;-2.088;2022-10-16T11:31:57;17.40;61.30
17080;DHT22;8655;57.106;-2.088;2022-10-16T11:34:30;17.40;61.30
17080;DHT22;8655;57.106;-2.088;2022-10-16T11:37:08;17.40;61.30
17080;DHT22;8655;57.106;-2.088;2022-10-16T11:39:35;17.40;61.30
17080;DHT22;8655;57.106;-2.088;2022-10-16T11:42:21;17.40;61.30
17080;DHT22;8655;57.106;-2.088;2022-10-16T11:45:00;17.40;61.30
17080;DHT22;8655;57.106;-2.088;2022-10-16T11:48:12;17.40;61.30
17080;DHT22;8655;57.106;-2.088;2022-10-16T11:56:04;17.50;61.50
17080;DHT22;8655;57.106;-2.088;2022-10-16T12:06:57;17.40;61.40
17080;DHT22;8655;57.106;-2.088;2022-10-16T12:09:29;17.40;61.40
17080;DHT22;8655;57.106;-2.088;2022-10-16T12:11:56;17.40;61.40
17080;DHT22;8655;57.106;-2.088;2022-10-16T12:14:36;17.40;61.40
17080;DHT22;8655;57.106;-2.088;2022-10-16T12:17:24;17.50;61.50
17080;DHT22;8655;57.106;-2.088;2022-10-16T12:20:53;17.40;61.40
17080;DHT22;8655;57.106;-2.088;2022-10-16T12:23:00;17.50;61.40
17080;DHT22;8655;57.106;-2.088;2022-10-16T12:25:38;17.50;61.50
17080;DHT22;8655;57.106;-2.088;2022-10-16T12:30:41;17.50;61.40
17080;DHT22;8655;57.106;-2.088;2022-10-16T12:33:40;17.50;61.50
17080;DHT22;8655;57.106;-2.088;2022-10-16T12:36:14;17.50;61.40
17080;DHT22;8655;57.106;-2.088;2022-10-16T12:38:50;17.50;61.40
17080;DHT22;8655;57.106;-2.088;2022-10-16T12:41:30;17.50;61.40
17080;DHT22;8655;57.106;-2.088;2022-10-16T12:43:57;17.50;61.40
17080;DHT22;8655;57.106;-2.088;2022-10-16T12:46:35;17.50;61.50
17080;DHT22;8655;57.106;-2.088;2022-10-16T12:51:42;17.50;61.40
17080;DHT22;8655;57.106;-2.088;2022-10-16T13:02:43;17.50;61.40
17080;DHT22;8655;57.106;-2.088;2022-10-16T13:10:37;17.50;61.40
17080;DHT22;8655;57.106;-2.088;2022-10-16T13:15:47;17.50;61.40
17080;DHT22;8655;57.106;-2.088;2022-10-16T13:18:18;17.50;61.40
17080;DHT22;8655;57.106;-2.088;2022-10-16T13:26:34;17.60;61.50
17080;DHT22;8655;57.106;-2.088;2022-10-16T13:29:02;17.60;61.50
17080;DHT22;8655;57.106;-2.088;2022-10-16T13:31:29;17.60;61.50
17080;DHT22;8655;57.106;-2.088;2022-10-16T13:33:58;17.60;61.50
17080;DHT22;8655;57.106;-2.088;2022-10-16T13:36:25;17.60;61.50
17080;DHT22;8655;57.106;-2.088;2022-10-16T13:39:13;17.60;61.50
17080;DHT22;8655;57.106;-2.088;2022-10-16T13:41:39;17.60;61.40
17080;DHT22;8655;57.106;-2.088;2022-10-16T13:44:08;17.60;61.40
17080;DHT22;8655;57.106;-2.088;2022-10-16T13:46:37;17.60;61.50
17080;DHT22;8655;57.106;-2.088;2022-10-16T13:49:13;17.60;61.40
17080;DHT22;8655;57.106;-2.088;2022-10-16T13:51:39;17.60;61.50
17080;DHT22;8655;57.106;-2.088;2022-10-16T13:54:05;17.60;61.40
17080;DHT22;8655;57.106;-2.088;2022-10-16T13:56:32;17.60;61.40
17080;DHT22;8655;57.106;-2.088;2022-10-16T13:59:03;17.60;61.40
17080;DHT22;8655;57.106;-2.088;2022-10-16T14:01:35;17.60;61.40
17080;DHT22;8655;57.106;-2.088;2022-10-16T14:04:10;17.60;61.40
17080;DHT22;8655;57.106;-2.088;2022-10-16T14:06:41;17.60;61.40
17080;DHT22;8655;57.106;-2.088;2022-10-16T14:12:11;17.60;61.40
17080;DHT22;8655;57.106;-2.088;2022-10-16T14:14:45;17.60;61.40
17080;DHT22;8655;57.106;-2.088;2022-10-16T14:17:43;17.60;61.40
17080;DHT22;8655;57.106;-2.088;2022-10-16T14:20:14;17.60;61.40
17080;DHT22;8655;57.106;-2.088;2022-10-16T14:22:41;17.60;61.40
17080;DHT22;8655;57.106;-2.088;2022-10-16T14:28:18;17.60;61.40
17080;DHT22;8655;57.106;-2.088;2022-10-16T14:30:59;17.60;61.40
17080;DHT22;8655;57.106;-2.088;2022-10-16T14:36:02;17.60;61.40
17080;DHT22;8655;57.106;-2.088;2022-10-16T14:38:29;17.60;61.40
17080;DHT22;8655;57.106;-2.088;2022-10-16T14:40:57;17.70;61.50
17080;DHT22;8655;57.106;-2.088;2022-10-16T14:43:44;17.60;61.40
17080;DHT22;8655;57.106;-2.088;2022-10-16T14:46:16;17.60;61.40
17080;DHT22;8655;57.106;-2.088;2022-10-16T14:48:44;17.70;61.50
17080;DHT22;8655;57.106;-2.088;2022-10-16T14:51:18;17.70;61.50
17080;DHT22;8655;57.106;-2.088;2022-10-16T14:53:44;17.70;61.50
17080;DHT22;8655;57.106;-2.088;2022-10-16T14:56:17;17.70;61.50
17080;DHT22;8655;57.106;-2.088;2022-10-16T14:58:43;17.60;61.40
17080;DHT22;8655;57.106;-2.088;2022-10-16T15:01:10;17.70;61.50
17080;DHT22;8655;57.106;-2.088;2022-10-16T15:03:37;17.70;61.50
17080;DHT22;8655;57.106;-2.088;2022-10-16T15:06:03;17.70;61.50
17080;DHT22;8655;57.106;-2.088;2022-10-16T15:08:29;17.70;61.50
17080;DHT22;8655;57.106;-2.088;2022-10-16T15:10:55;17.70;61.50
17080;DHT22;8655;57.106;-2.088;2022-10-16T15:13:20;17.70;61.50
17080;DHT22;8655;57.106;-2.088;2022-10-16T15:15:47;17.70;61.50
17080;DHT22;8655;57.106;-2.088;2022-10-16T15:18:14;17.70;61.50
17080;DHT22;8655;57.106;-2.088;2022-10-16T15:20:47;17.70;61.40
17080;DHT22;8655;57.106;-2.088;2022-10-16T15:23:15;17.70;61.40
17080;DHT22;8655;57.106;-2.088;2022-10-16T15:25:44;17.70;61.50
17080;DHT22;8655;57.106;-2.088;2022-10-16T15:28:11;17.70;61.40
17080;DHT22;8655;57.106;-2.088;2022-10-16T15:30:37;17.70;61.40
17080;DHT22;8655;57.106;-2.088;2022-10-16T15:33:04;17.70;61.40
17080;DHT22;8655;57.106;-2.088;2022-10-16T15:35:30;17.70;61.50
17080;DHT22;8655;57.106;-2.088;2022-10-16T15:37:57;17.70;61.50
17080;DHT22;8655;57.106;-2.088;2022-10-16T15:40:23;17.70;61.40
17080;DHT22;8655;57.106;-2.088;2022-10-16T15:42:49;17.70;61.50
17080;DHT22;8655;57.106;-2.088;2022-10-16T15:45:15;17.70;61.40
17080;DHT22;8655;57.106;-2.088;2022-10-16T15:47:41;17.70;61.40
17080;DHT22;8655;57.106;-2.088;2022-10-16T15:50:09;17.70;61.40
17080;DHT22;8655;57.106;-2.088;2022-10-16T15:52:36;17.70;61.40
17080;DHT22;8655;57.106;-2.088;2022-10-16T15:55:02;17.70;61.40
17080;DHT22;8655;57.106;-2.088;2022-10-16T15:57:28;17.70;61.40
17080;DHT22;8655;57.106;-2.088;2022-10-16T15:59:54;17.70;61.40
17080;DHT22;8655;57.106;-2.088;2022-10-16T16:02:20;17.70;61.40
17080;DHT22;8655;57.106;-2.088;2022-10-16T16:04:46;17.70;61.40
17080;DHT22;8655;57.106;-2.088;2022-10-16T16:07:12;17.70;61.40
17080;DHT22;8655;57.106;-2.088;2022-10-16T16:09:37;17.70;61.40
17080;DHT22;8655;57.106;-2.088;2022-10-16T16:12:03;17.70;61.40
17080;DHT22;8655;57.106;-2.088;2022-10-16T16:14:29;17.70;61.40
17080;DHT22;8655;57.106;-2.088;2022-10-16T16:16:55;17.70;61.40
17080;DHT22;8655;57.106;-2.088;2022-10-16T16:19:21;17.70;61.30
17080;DHT22;8655;57.106;-2.088;2022-10-16T16:21:48;17.70;61.40
17080;DHT22;8655;57.106;-2.088;2022-10-16T16:24:13;17.70;61.40
17080;DHT22;8655;57.106;-2.088;2022-10-16T16:26:39;17.70;61.30
17080;DHT22;8655;57.106;-2.088;2022-10-16T16:29:12;17.70;61.40
17080;DHT22;8655;57.106;-2.088;2022-10-16T16:31:39;17.70;61.30
17080;DHT22;8655;57.106;-2.088;2022-10-16T16:34:05;17.70;61.30
17080;DHT22;8655;57.106;-2.088;2022-10-16T16:36:31;17.70;61.30
17080;DHT22;8655;57.106;-2.088;2022-10-16T16:38:57;17.70;61.40
17080;DHT22;8655;57.106;-2.088;2022-10-16T16:41:26;17.70;61.30
17080;DHT22;8655;57.106;-2.088;2022-10-16T16:43:52;17.70;61.30
17080;DHT22;8655;57.106;-2.088;2022-10-16T16:46:19;17.70;61.30
17080;DHT22;8655;57.106;-2.088;2022-10-16T16:48:45;17.70;61.30
17080;DHT22;8655;57.106;-2.088;2022-10-16T16:51:14;17.70;61.30
17080;DHT22;8655;57.106;-2.088;2022-10-16T16:53:47;17.60;61.20
17080;DHT22;8655;57.106;-2.088;2022-10-16T16:56:13;17.70;61.30
17080;DHT22;8655;57.106;-2.088;2022-10-16T16:58:39;17.70;61.30
17080;DHT22;8655;57.106;-2.088;2022-10-16T17:01:05;17.70;61.30
17080;DHT22;8655;57.106;-2.088;2022-10-16T17:03:33;17.70;61.30
17080;DHT22;8655;57.106;-2.088;2022-10-16T17:06:04;17.70;61.30
17080;DHT22;8655;57.106;-2.088;2022-10-16T17:08:31;17.70;61.30
17080;DHT22;8655;57.106;-2.088;2022-10-16T17:10:57;17.70;61.30
17080;DHT22;8655;57.106;-2.088;2022-10-16T17:13:24;17.70;61.30
17080;DHT22;8655;57.106;-2.088;2022-10-16T17:15:50;17.60;61.20
17080;DHT22;8655;57.106;-2.088;2022-10-16T17:18:17;17.70;61.30
17080;DHT22;8655;57.106;-2.088;2022-10-16T17:20:43;17.60;61.20
17080;DHT22;8655;57.106;-2.088;2022-10-16T17:23:09;17.70;61.30
17080;DHT22;8655;57.106;-2.088;2022-10-16T17:25:37;17.70;61.30
17080;DHT22;8655;57.106;-2.088;2022-10-16T17:28:03;17.60;61.20
17080;DHT22;8655;57.106;-2.088;2022-10-16T17:30:29;17.60;61.20
17080;DHT22;8655;57.106;-2.088;2022-10-16T17:32:55;17.60;61.10